Time;durP1;ratioP1;P1;durP2;ratioP2;P2;SDS_P1;SDS_P2;PMS_P1;PMS_P2;Temp;Humidity;BMP_temperature;BMP_pressure;BME280_temperature;BME280_humidity;BME280_pressure;Samples;Min_cycle;Max_cycle;Signal;HPM_P1;HPM_P2
2023/02/02 00:02:13;;;;;;;;;;;;;;;3.14;100.00;97786.36;67894;1278;1016484;-59
2023/02/02 00:05:16;;;;;;;;;;;;;;;3.09;100.00;97788.48;67880;1277;1016490;-59
2023/02/02 00:08:18;;;;;;;;;;;;;;;3.02;100.00;97792.77;67836;1277;1016245;-59
2023/02/02 00:11:21;;;;;;;;;;;;;;;3.01;100.00;97792.30;65711;1278;5400559;-59
2023/02/02 00:14:25;;;;;;;;;;;;;;;2.87;100.00;97794.70;67881;1277;1016383;-59
2023/02/02 00:17:27;;;;;;;;;;;;;;;2.90;100.00;97799.37;67885;1277;1016456;-59
2023/02/02 00:20:30;;;;;;;;;;;;;;;2.96;100.00;97809.48;67867;1278;1016367;-59
2023/02/02 00:23:33;;;;;;;;;;;;;;;2.93;100.00;97806.98;67811;1277;1016476;-59
2023/02/02 00:26:44;;;;;;;;;;;;;;;2.85;100.00;97813.25;67810;1278;1016461;-59
2023/02/02 00:29:46;;;;;;;;;;;;;;;2.81;100.00;97813.62;67859;1277;1016458;-59
2023/02/02 00:32:51;;;;;;;;;;;;;;;2.73;100.00;97815.54;67868;1277;1016297;-59
2023/02/02 00:35:53;;;;;;;;;;;;;;;2.79;100.00;97823.88;67799;1277;1016516;-59
2023/02/02 00:38:55;;;;;;;;;;;;;;;2.87;100.00;97830.42;67852;1278;1016796;-59
2023/02/02 00:41:58;;;;;;;;;;;;;;;2.84;100.00;97828.66;67860;1277;1016181;-59
2023/02/02 00:45:16;;;;;;;;;;;;;;;2.81;100.00;97841.40;67849;1277;1016371;-59
2023/02/02 00:48:19;;;;;;;;;;;;;;;2.74;100.00;97839.48;67820;1277;1016442;-59
2023/02/02 00:51:21;;;;;;;;;;;;;;;2.74;100.00;97844.63;67806;1277;1016803;-59
2023/02/02 00:54:24;;;;;;;;;;;;;;;2.74;100.00;97843.95;67828;1278;1016487;-59
2023/02/02 00:57:26;;;;;;;;;;;;;;;2.86;100.00;97842.73;67864;1278;1016471;-59
2023/02/02 01:00:29;;;;;;;;;;;;;;;2.82;100.00;97846.20;67875;1278;1016439;-59
2023/02/02 01:03:31;;;;;;;;;;;;;;;2.85;100.00;97839.33;67763;1278;1016707;-59
2023/02/02 01:06:33;;;;;;;;;;;;;;;2.84;100.00;97845.56;67836;1278;1016492;-59
2023/02/02 01:09:36;;;;;;;;;;;;;;;2.83;100.00;97855.13;67849;1277;1016854;-59
2023/02/02 01:12:38;;;;;;;;;;;;;;;2.89;100.00;97849.14;67897;1278;1016483;-59
2023/02/02 01:15:41;;;;;;;;;;;;;;;2.92;100.00;97842.47;67875;1277;1016480;-59
2023/02/02 01:18:43;;;;;;;;;;;;;;;2.93;100.00;97837.91;67800;1277;1016978;-59
2023/02/02 01:21:46;;;;;;;;;;;;;;;2.97;100.00;97833.95;67870;1277;1016470;-59
2023/02/02 01:24:48;;;;;;;;;;;;;;;2.95;100.00;97833.16;67910;1277;1018259;-59
2023/02/02 01:27:51;;;;;;;;;;;;;;;3.00;100.00;97834.69;67875;1277;1017069;-59
2023/02/02 01:30:53;;;;;;;;;;;;;;;2.95;100.00;97839.73;67825;1277;1016933;-59
2023/02/02 01:33:56;;;;;;;;;;;;;;;2.88;100.00;97843.01;67835;1277;1016401;-59
2023/02/02 01:36:58;;;;;;;;;;;;;;;2.91;100.00;97844.39;67876;1278;1016483;-59
2023/02/02 01:40:00;;;;;;;;;;;;;;;2.93;100.00;97839.48;67890;1278;1016439;-59
2023/02/02 01:43:03;;;;;;;;;;;;;;;2.89;100.00;97844.30;67881;1277;1016754;-59
2023/02/02 01:46:05;;;;;;;;;;;;;;;2.83;100.00;97843.75;67819;1277;1016164;-59
2023/02/02 01:49:08;;;;;;;;;;;;;;;2.84;100.00;97849.60;67840;1278;1016121;-59
2023/02/02 01:52:10;;;;;;;;;;;;;;;2.83;100.00;97855.83;67871;1278;1016471;-59
2023/02/02 01:55:13;;;;;;;;;;;;;;;2.75;100.00;97854.42;67860;1277;1016436;-59
2023/02/02 01:58:15;;;;;;;;;;;;;;;2.63;100.00;97856.20;67881;1278;1016366;-59
2023/02/02 02:01:17;;;;;;;;;;;;;;;2.54;100.00;97858.29;67835;1278;1016147;-59
2023/02/02 02:04:20;;;;;;;;;;;;;;;2.52;100.00;97856.98;67784;1278;1016513;-59
2023/02/02 02:07:22;;;;;;;;;;;;;;;2.54;100.00;97858.63;67823;1277;1016305;-59
2023/02/02 02:10:25;;;;;;;;;;;;;;;2.55;100.00;97858.94;67881;1277;1016473;-59
2023/02/02 02:16:43;;;;;;;;;;;;;;;2.72;100.00;97861.30;67856;1278;1016500;-59
2023/02/02 02:26:35;;;;;;;;;;;;;;;2.86;100.00;97866.92;67814;1277;1016424;-58
2023/02/02 02:29:37;;;;;;;;;;;;;;;2.92;100.00;97869.55;67880;1277;1016326;-58
2023/02/02 02:32:40;;;;;;;;;;;;;;;2.93;100.00;97870.06;67846;1278;1016399;-58
2023/02/02 02:35:42;;;;;;;;;;;;;;;2.99;100.00;97871.20;67813;1277;1018237;-58
2023/02/02 02:38:44;;;;;;;;;;;;;;;3.05;100.00;97871.55;67809;1278;1017373;-58
2023/02/02 02:41:47;;;;;;;;;;;;;;;3.19;100.00;97870.77;67839;1277;1016137;-58
2023/02/02 02:44:49;;;;;;;;;;;;;;;3.23;100.00;97869.17;67871;1278;1016379;-58
2023/02/02 02:47:52;;;;;;;;;;;;;;;3.32;100.00;97871.04;67874;1277;1016501;-58
2023/02/02 02:50:55;;;;;;;;;;;;;;;3.41;100.00;97868.70;67842;1277;1016201;-58
2023/02/02 02:53:58;;;;;;;;;;;;;;;3.39;100.00;97868.79;67859;1278;1016455;-58
2023/02/02 02:57:00;;;;;;;;;;;;;;;3.44;100.00;97870.79;67838;1278;1018704;-58
2023/02/02 03:00:03;;;;;;;;;;;;;;;3.48;100.00;97868.04;67845;1277;1016187;-59
2023/02/02 03:03:06;;;;;;;;;;;;;;;3.39;100.00;97868.61;67893;1278;1016482;-59
2023/02/02 03:06:09;;;;;;;;;;;;;;;3.50;100.00;97869.48;67803;1277;1016468;-59
2023/02/02 03:09:11;;;;;;;;;;;;;;;3.44;100.00;97870.62;67846;1278;1018388;-58
2023/02/02 03:12:13;;;;;;;;;;;;;;;3.44;100.00;97874.09;67890;1278;1016477;-58
2023/02/02 03:15:16;;;;;;;;;;;;;;;3.45;100.00;97879.58;67828;1278;1016453;-58
2023/02/02 03:18:18;;;;;;;;;;;;;;;3.51;100.00;97876.02;67841;1278;1016308;-58
2023/02/02 03:21:21;;;;;;;;;;;;;;;3.48;100.00;97882.01;67834;1278;1016537;-59
2023/02/02 03:24:23;;;;;;;;;;;;;;;3.47;100.00;97885.20;67859;1278;1016319;-59
2023/02/02 03:27:26;;;;;;;;;;;;;;;3.49;100.00;97884.94;67889;1278;1016329;-59
2023/02/02 03:30:28;;;;;;;;;;;;;;;3.46;100.00;97889.05;67854;1278;1016441;-59
2023/02/02 03:33:31;;;;;;;;;;;;;;;3.49;100.00;97890.80;67835;1278;1016544;-58
2023/02/02 03:36:33;;;;;;;;;;;;;;;3.65;100.00;97891.11;67815;1278;1016463;-58
2023/02/02 03:39:36;;;;;;;;;;;;;;;3.72;100.00;97888.88;67839;1278;1016454;-58
2023/02/02 03:42:38;;;;;;;;;;;;;;;3.77;100.00;97892.91;67887;1278;1017784;-58
2023/02/02 03:45:40;;;;;;;;;;;;;;;3.69;100.00;97891.59;67841;1278;1016472;-59
2023/02/02 03:48:43;;;;;;;;;;;;;;;3.57;100.00;97893.37;67826;1278;1015698;-58
2023/02/02 03:51:45;;;;;;;;;;;;;;;3.60;100.00;97887.54;67858;1278;1016417;-59
2023/02/02 03:54:48;;;;;;;;;;;;;;;3.60;100.00;97889.92;67882;1278;1017712;-58
2023/02/02 03:57:50;;;;;;;;;;;;;;;3.54;100.00;97886.93;67846;1278;1016401;-58
2023/02/02 04:00:54;;;;;;;;;;;;;;;3.48;100.00;97891.37;67806;1278;1016226;-58
2023/02/02 04:03:56;;;;;;;;;;;;;;;3.47;100.00;97882.93;67787;1278;1016184;-58
2023/02/02 04:07:00;;;;;;;;;;;;;;;3.39;100.00;97883.66;67777;1278;1017594;-58
2023/02/02 04:10:03;;;;;;;;;;;;;;;3.42;100.00;97880.24;67788;1278;1016345;-58
2023/02/02 04:13:05;;;;;;;;;;;;;;;3.49;100.00;97879.92;67800;1278;1016684;-59
2023/02/02 04:16:07;;;;;;;;;;;;;;;3.43;100.00;97888.34;67873;1278;1016298;-59
2023/02/02 04:19:11;;;;;;;;;;;;;;;3.55;100.00;97887.06;67860;1277;1016156;-59
2023/02/02 04:22:14;;;;;;;;;;;;;;;3.48;100.00;97886.52;67881;1277;1016200;-58
2023/02/02 04:25:16;;;;;;;;;;;;;;;3.49;100.00;97888.38;67851;1278;1016162;-58
2023/02/02 04:28:18;;;;;;;;;;;;;;;3.45;100.00;97890.10;67852;1278;1015935;-59
2023/02/02 04:31:21;;;;;;;;;;;;;;;3.53;100.00;97894.96;67834;1277;1016362;-58
2023/02/02 04:34:23;;;;;;;;;;;;;;;3.52;100.00;97898.27;67825;1277;1016511;-58
2023/02/02 04:37:26;;;;;;;;;;;;;;;3.51;100.00;97896.94;67874;1277;1018030;-58
2023/02/02 04:40:28;;;;;;;;;;;;;;;3.49;100.00;97904.83;67894;1278;1015923;-58
2023/02/02 04:43:31;;;;;;;;;;;;;;;3.49;100.00;97886.82;67863;1277;1016504;-59
2023/02/02 04:46:33;;;;;;;;;;;;;;;3.50;100.00;97890.21;67824;1277;1016394;-58
2023/02/02 04:49:35;;;;;;;;;;;;;;;3.50;100.00;97892.13;67827;1277;1016421;-58
2023/02/02 04:52:38;;;;;;;;;;;;;;;3.44;100.00;97885.32;67856;1277;1016404;-58
2023/02/02 04:55:40;;;;;;;;;;;;;;;3.36;100.00;97886.75;67872;1277;1016358;-58
2023/02/02 04:58:43;;;;;;;;;;;;;;;3.38;100.00;97884.39;67825;1278;1015655;-59
2023/02/02 05:01:45;;;;;;;;;;;;;;;3.36;100.00;97886.39;67831;1277;1016478;-58
2023/02/02 05:04:48;;;;;;;;;;;;;;;3.31;100.00;97885.60;67840;1277;1016679;-58
2023/02/02 05:07:50;;;;;;;;;;;;;;;3.36;100.00;97886.59;67874;1277;1016461;-58
2023/02/02 05:10:53;;;;;;;;;;;;;;;3.27;100.00;97890.80;67868;1277;1016368;-58
2023/02/02 05:13:55;;;;;;;;;;;;;;;3.29;100.00;97889.48;67785;1277;1016430;-59
2023/02/02 05:16:57;;;;;;;;;;;;;;;3.31;100.00;97886.48;67845;1277;1016463;-58
2023/02/02 05:20:00;;;;;;;;;;;;;;;3.31;100.00;97884.92;67829;1277;1016308;-59
2023/02/02 05:23:02;;;;;;;;;;;;;;;3.33;100.00;97882.58;67871;1277;1016447;-59
2023/02/02 05:26:05;;;;;;;;;;;;;;;3.33;100.00;97883.06;67860;1277;1018233;-58
2023/02/02 05:29:08;;;;;;;;;;;;;;;3.35;100.00;97878.32;67880;1278;1016388;-59
2023/02/02 05:32:10;;;;;;;;;;;;;;;3.36;100.00;97882.58;67825;1278;1019747;-58
2023/02/02 05:35:13;;;;;;;;;;;;;;;3.35;100.00;97883.86;67855;1277;1017204;-58
2023/02/02 05:38:15;;;;;;;;;;;;;;;3.41;100.00;97883.92;67875;1277;1016350;-59
2023/02/02 05:41:17;;;;;;;;;;;;;;;3.49;100.00;97880.09;67869;1278;1016478;-58
2023/02/02 05:44:20;;;;;;;;;;;;;;;3.50;100.00;97877.46;67819;1277;1016827;-59
2023/02/02 05:47:22;;;;;;;;;;;;;;;3.54;100.00;97874.67;67822;1277;1016267;-58
2023/02/02 05:50:25;;;;;;;;;;;;;;;3.53;100.00;97881.96;67831;1277;1019604;-58
2023/02/02 05:53:27;;;;;;;;;;;;;;;3.49;100.00;97870.08;67870;1277;1016410;-59
2023/02/02 05:56:30;;;;;;;;;;;;;;;3.49;100.00;97872.47;67893;1278;1018917;-58
2023/02/02 05:59:32;;;;;;;;;;;;;;;3.54;100.00;97875.52;67817;1277;1016458;-58
2023/02/02 06:02:34;;;;;;;;;;;;;;;3.46;100.00;97868.48;67811;1277;1016412;-58
2023/02/02 06:05:37;;;;;;;;;;;;;;;3.47;100.00;97870.13;67816;1277;1016466;-59
2023/02/02 06:08:40;;;;;;;;;;;;;;;3.41;100.00;97873.56;67853;1277;1016554;-58
2023/02/02 06:11:42;;;;;;;;;;;;;;;3.41;100.00;97867.14;67866;1277;1015935;-58
2023/02/02 06:14:45;;;;;;;;;;;;;;;3.40;100.00;97862.90;67813;1277;1016442;-58
2023/02/02 06:17:47;;;;;;;;;;;;;;;3.39;100.00;97859.49;67861;1277;1016745;-58
2023/02/02 06:20:50;;;;;;;;;;;;;;;3.34;100.00;97857.45;67887;1277;1018936;-58
2023/02/02 06:23:52;;;;;;;;;;;;;;;3.34;100.00;97855.55;67888;1278;1016471;-58
2023/02/02 06:26:57;;;;;;;;;;;;;;;3.35;100.00;97855.15;67825;1277;1018218;-59
2023/02/02 06:29:59;;;;;;;;;;;;;;;3.40;100.00;97851.66;67831;1278;1016912;-58
2023/02/02 06:33:01;;;;;;;;;;;;;;;3.33;100.00;97846.79;67850;1277;1016511;-58
2023/02/02 06:36:04;;;;;;;;;;;;;;;3.34;100.00;97835.52;67854;1278;1016555;-58
2023/02/02 06:39:06;;;;;;;;;;;;;;;3.34;100.00;97838.48;67849;1277;1015948;-58
2023/02/02 06:42:09;;;;;;;;;;;;;;;3.36;100.00;97834.23;67835;1277;1016075;-58
2023/02/02 06:45:11;;;;;;;;;;;;;;;3.41;100.00;97822.39;67828;1277;1015750;-59
2023/02/02 06:48:14;;;;;;;;;;;;;;;3.43;100.00;97818.65;67810;1277;1016325;-58
2023/02/02 06:51:16;;;;;;;;;;;;;;;3.49;100.00;97811.81;67852;1277;1016075;-58
2023/02/02 06:54:18;;;;;;;;;;;;;;;3.53;100.00;97819.23;67895;1277;1016391;-58
2023/02/02 06:57:21;;;;;;;;;;;;;;;3.60;100.00;97813.36;67843;1277;1016317;-58
2023/02/02 07:00:23;;;;;;;;;;;;;;;3.59;100.00;97808.77;67803;1277;1016393;-58
2023/02/02 07:03:26;;;;;;;;;;;;;;;3.55;100.00;97814.27;67819;1277;1016821;-58
2023/02/02 07:06:28;;;;;;;;;;;;;;;3.57;100.00;97819.00;67869;1277;1016378;-59
2023/02/02 07:09:30;;;;;;;;;;;;;;;3.53;100.00;97820.27;68020;1275;1016404;-58
2023/02/02 07:12:33;;;;;;;;;;;;;;;3.40;100.00;97812.04;68080;1275;1016319;-58
2023/02/02 07:15:36;;;;;;;;;;;;;;;3.28;100.00;97811.98;68006;1275;1016434;-58
2023/02/02 07:18:38;;;;;;;;;;;;;;;3.21;100.00;97811.25;68038;1275;1019302;-58
2023/02/02 07:21:41;;;;;;;;;;;;;;;3.19;100.00;97812.37;68075;1275;1016471;-58
2023/02/02 07:24:43;;;;;;;;;;;;;;;3.12;100.00;97810.63;67997;1275;1016420;-58
2023/02/02 07:27:46;;;;;;;;;;;;;;;3.03;100.00;97801.71;67947;1275;1016280;-58
2023/02/02 07:30:49;;;;;;;;;;;;;;;3.03;100.00;97797.75;68010;1275;1018205;-59
2023/02/02 07:33:51;;;;;;;;;;;;;;;3.01;100.00;97787.50;67971;1275;1016340;-58
2023/02/02 07:36:54;;;;;;;;;;;;;;;2.95;100.00;97791.38;68022;1275;1015898;-58
2023/02/02 07:39:56;;;;;;;;;;;;;;;2.91;100.00;97791.05;68043;1275;1016409;-58
2023/02/02 07:42:59;;;;;;;;;;;;;;;2.91;100.00;97781.19;68055;1275;1016334;-58
2023/02/02 07:46:02;;;;;;;;;;;;;;;2.86;100.00;97776.93;68012;1275;1016343;-58
2023/02/02 07:49:04;;;;;;;;;;;;;;;2.80;100.00;97789.11;68065;1275;1016451;-58
2023/02/02 07:52:07;;;;;;;;;;;;;;;2.71;100.00;97784.70;68046;1275;1016213;-58
2023/02/02 07:55:10;;;;;;;;;;;;;;;2.68;100.00;97769.30;68029;1275;1017133;-58
2023/02/02 07:58:13;;;;;;;;;;;;;;;2.64;100.00;97762.09;68051;1275;1016477;-58
2023/02/02 08:01:15;;;;;;;;;;;;;;;2.53;100.00;97811.73;68054;1275;1018309;-58
2023/02/02 08:04:18;;;;;;;;;;;;;;;2.42;100.00;97802.22;68042;1275;1016448;-58
2023/02/02 08:07:23;;;;;;;;;;;;;;;2.33;100.00;97792.43;67986;1275;1016293;-58
2023/02/02 08:10:25;;;;;;;;;;;;;;;2.37;100.00;97777.23;68073;1275;1016422;-58
2023/02/02 08:13:28;;;;;;;;;;;;;;;2.42;100.00;97776.86;67984;1275;1015936;-58
2023/02/02 08:16:31;;;;;;;;;;;;;;;2.42;100.00;97793.59;68040;1275;1016350;-58
2023/02/02 08:19:33;;;;;;;;;;;;;;;2.38;100.00;97787.91;68033;1275;1016472;-58
2023/02/02 08:22:35;;;;;;;;;;;;;;;2.39;100.00;97781.11;68072;1275;1016133;-59
2023/02/02 08:25:38;;;;;;;;;;;;;;;2.41;100.00;97803.45;68040;1275;1015983;-58
2023/02/02 08:28:40;;;;;;;;;;;;;;;2.41;100.00;97800.20;67954;1275;1016202;-59
2023/02/02 08:31:43;;;;;;;;;;;;;;;2.41;100.00;97791.05;68034;1275;1016724;-58
2023/02/02 08:34:45;;;;;;;;;;;;;;;2.41;100.00;97777.75;68058;1275;1016429;-58
2023/02/02 08:37:48;;;;;;;;;;;;;;;2.46;100.00;97794.14;68041;1275;1016295;-58
2023/02/02 08:40:50;;;;;;;;;;;;;;;2.45;100.00;97803.98;67983;1275;1018524;-58
2023/02/02 08:43:52;;;;;;;;;;;;;;;2.47;100.00;97796.63;67989;1275;1017365;-58
2023/02/02 08:46:55;;;;;;;;;;;;;;;2.51;100.00;97797.51;68003;1275;1016388;-58
2023/02/02 08:49:57;;;;;;;;;;;;;;;2.56;100.00;97822.15;68049;1275;1016368;-58
2023/02/02 08:53:00;;;;;;;;;;;;;;;2.59;100.00;97805.60;68056;1275;1016308;-58
2023/02/02 08:56:02;;;;;;;;;;;;;;;2.66;100.00;97803.91;67989;1275;1016390;-58
2023/02/02 08:59:05;;;;;;;;;;;;;;;2.66;100.00;97796.35;68043;1275;1016392;-58
2023/02/02 09:02:07;;;;;;;;;;;;;;;2.67;100.00;97816.46;68062;1275;1016407;-59
2023/02/02 09:05:10;;;;;;;;;;;;;;;2.65;100.00;97817.95;68050;1275;1018718;-58
2023/02/02 09:08:12;;;;;;;;;;;;;;;2.64;100.00;97824.55;68010;1275;1016596;-59
2023/02/02 09:11:15;;;;;;;;;;;;;;;2.65;100.00;97820.54;68031;1275;1016292;-59
2023/02/02 09:14:17;;;;;;;;;;;;;;;2.58;100.00;97834.64;68098;1275;1016129;-58
2023/02/02 09:17:21;;;;;;;;;;;;;;;2.55;100.00;97835.30;68048;1275;1016119;-58
2023/02/02 09:20:23;;;;;;;;;;;;;;;2.57;100.00;97837.09;68017;1275;1016440;-58
2023/02/02 09:23:26;;;;;;;;;;;;;;;2.62;100.00;97818.62;68044;1275;1016701;-59
2023/02/02 09:26:28;;;;;;;;;;;;;;;2.62;100.00;97819.13;68045;1275;1016420;-58
2023/02/02 09:29:30;;;;;;;;;;;;;;;2.63;100.00;97825.48;68062;1275;1016438;-58
2023/02/02 09:32:33;;;;;;;;;;;;;;;2.69;100.00;97821.20;68022;1275;1016481;-58
2023/02/02 09:35:35;;;;;;;;;;;;;;;2.69;100.00;97836.90;68018;1275;1016285;-58
2023/02/02 09:38:38;;;;;;;;;;;;;;;2.67;100.00;97840.65;67988;1275;1016369;-58
2023/02/02 09:41:40;;;;;;;;;;;;;;;2.65;100.00;97855.59;68047;1275;1016688;-58
2023/02/02 09:44:44;;;;;;;;;;;;;;;2.75;100.00;97844.95;68051;1275;1017716;-59
2023/02/02 09:47:46;;;;;;;;;;;;;;;2.74;100.00;97845.33;68031;1275;1016490;-58
2023/02/02 09:50:49;;;;;;;;;;;;;;;2.75;100.00;97843.92;68031;1275;1017225;-58
2023/02/02 09:53:51;;;;;;;;;;;;;;;2.74;100.00;97841.70;68008;1275;1016371;-58
2023/02/02 09:56:54;;;;;;;;;;;;;;;2.82;100.00;97848.45;67994;1275;1016468;-59
2023/02/02 09:59:57;;;;;;;;;;;;;;;2.96;100.00;97853.33;68024;1275;1016780;-58
2023/02/02 10:02:59;;;;;;;;;;;;;;;2.93;100.00;97864.84;67982;1275;1016370;-58
2023/02/02 10:06:03;;;;;;;;;;;;;;;3.00;100.00;97863.15;68060;1275;1016429;-58
2023/02/02 10:09:05;;;;;;;;;;;;;;;3.08;100.00;97867.11;67984;1275;1016415;-58
2023/02/02 10:12:07;;;;;;;;;;;;;;;3.15;100.00;97883.92;68011;1275;1016246;-58
2023/02/02 10:15:11;;;;;;;;;;;;;;;3.25;100.00;97878.61;68037;1275;1016459;-58
2023/02/02 10:18:14;;;;;;;;;;;;;;;3.27;100.00;97878.35;68010;1275;1016352;-58
2023/02/02 10:21:17;;;;;;;;;;;;;;;3.23;100.00;97890.46;68047;1275;1016632;-58
2023/02/02 10:24:19;;;;;;;;;;;;;;;3.22;100.00;97914.02;68024;1275;1016425;-58
2023/02/02 10:27:22;;;;;;;;;;;;;;;3.16;100.00;97912.02;68019;1275;1016414;-58
2023/02/02 10:30:24;;;;;;;;;;;;;;;3.17;100.00;97908.33;68020;1275;1016450;-58
2023/02/02 10:33:26;;;;;;;;;;;;;;;3.18;100.00;97916.42;68022;1275;1016162;-59
2023/02/02 10:36:29;;;;;;;;;;;;;;;3.15;100.00;97918.83;68067;1275;1018458;-58
2023/02/02 10:39:31;;;;;;;;;;;;;;;3.14;100.00;97924.89;68048;1275;1016358;-58
2023/02/02 10:42:34;;;;;;;;;;;;;;;3.17;100.00;97933.22;68011;1275;1016278;-58
2023/02/02 10:45:36;;;;;;;;;;;;;;;3.19;100.00;97927.96;67941;1275;1016467;-58
2023/02/02 10:48:38;;;;;;;;;;;;;;;3.23;100.00;97944.21;67968;1275;1016346;-58
2023/02/02 10:51:41;;;;;;;;;;;;;;;3.24;100.00;97938.27;67988;1275;1016733;-58
2023/02/02 10:54:43;;;;;;;;;;;;;;;3.22;100.00;97941.80;68009;1275;1017032;-58
2023/02/02 10:57:45;;;;;;;;;;;;;;;3.26;100.00;97939.20;68067;1275;1016111;-58
2023/02/02 11:00:49;;;;;;;;;;;;;;;3.23;100.00;97958.03;68007;1275;1016254;-59
2023/02/02 11:06:48;;;;;;;;;;;;;;;3.18;100.00;97948.56;68019;1275;1019069;-58
2023/02/02 11:07:19;;;;;;;;;;;;;;;3.12;100.00;97965.39;68038;1275;1016621;-58
2023/02/02 11:10:21;;;;;;;;;;;;;;;3.18;100.00;97969.66;68039;1275;1015749;-58
2023/02/02 11:13:24;;;;;;;;;;;;;;;3.19;100.00;97978.24;68015;1275;1016386;-58
2023/02/02 11:16:26;;;;;;;;;;;;;;;3.19;100.00;97973.73;68015;1275;1015885;-58
2023/02/02 11:19:29;;;;;;;;;;;;;;;3.25;100.00;97979.34;68044;1275;1016497;-58
2023/02/02 11:22:32;;;;;;;;;;;;;;;3.26;100.00;97978.08;68029;1275;1017578;-58
2023/02/02 11:25:35;;;;;;;;;;;;;;;3.34;100.00;97977.05;68015;1275;1015933;-58
2023/02/02 11:28:37;;;;;;;;;;;;;;;3.38;100.00;97976.69;68025;1275;1016048;-58
2023/02/02 11:31:40;;;;;;;;;;;;;;;3.41;100.00;97993.31;68076;1275;1016174;-58
2023/02/02 11:34:42;;;;;;;;;;;;;;;3.45;100.00;97996.45;68047;1275;1020732;-58
2023/02/02 11:37:45;;;;;;;;;;;;;;;3.54;100.00;97992.22;67975;1275;1016423;-58
2023/02/02 11:40:47;;;;;;;;;;;;;;;3.57;100.00;97998.63;67991;1275;1016470;-58
2023/02/02 11:43:50;;;;;;;;;;;;;;;3.69;100.00;98001.58;67982;1275;1016446;-58
2023/02/02 11:46:52;;;;;;;;;;;;;;;3.89;100.00;98001.32;68063;1275;1017022;-58
2023/02/02 11:49:55;;;;;;;;;;;;;;;3.89;100.00;98016.71;67991;1275;1016445;-58
2023/02/02 11:52:57;;;;;;;;;;;;;;;3.96;100.00;98007.44;68049;1275;1015850;-58
2023/02/02 11:56:00;;;;;;;;;;;;;;;3.80;100.00;98018.31;68021;1275;1016004;-58
2023/02/02 11:59:02;;;;;;;;;;;;;;;3.77;100.00;98020.40;68018;1275;1016514;-58
2023/02/02 12:02:05;;;;;;;;;;;;;;;3.71;100.00;98021.55;68001;1275;1016350;-58
2023/02/02 12:05:07;;;;;;;;;;;;;;;3.64;100.00;98024.95;68007;1275;1016452;-59
2023/02/02 12:08:11;;;;;;;;;;;;;;;3.63;100.00;98030.89;68002;1275;1016355;-58
2023/02/02 12:11:13;;;;;;;;;;;;;;;3.57;100.00;98041.71;65435;1275;6371408;-58
2023/02/02 12:14:16;;;;;;;;;;;;;;;3.45;100.00;98041.55;68031;1275;1016639;-58
2023/02/02 12:17:19;;;;;;;;;;;;;;;3.46;100.00;98048.25;68009;1275;1016233;-58
2023/02/02 12:20:21;;;;;;;;;;;;;;;3.44;100.00;98049.02;67997;1275;1016817;-58
2023/02/02 12:23:24;;;;;;;;;;;;;;;3.57;100.00;98050.02;67982;1275;1016292;-58
2023/02/02 12:26:26;;;;;;;;;;;;;;;3.60;100.00;98074.26;68032;1275;1016254;-58
2023/02/02 12:29:28;;;;;;;;;;;;;;;3.62;100.00;98069.49;68055;1275;1016342;-58
2023/02/02 12:32:31;;;;;;;;;;;;;;;3.61;100.00;98065.55;68007;1275;1016447;-58
2023/02/02 12:35:34;;;;;;;;;;;;;;;3.61;100.00;98075.92;68018;1275;1018246;-58
2023/02/02 12:38:36;;;;;;;;;;;;;;;3.64;100.00;98083.73;68037;1275;1016138;-58
2023/02/02 12:41:39;;;;;;;;;;;;;;;3.59;100.00;98088.62;67989;1275;1016330;-58
2023/02/02 12:44:41;;;;;;;;;;;;;;;3.55;100.00;98092.11;68022;1275;1016677;-58
2023/02/02 12:47:44;;;;;;;;;;;;;;;3.52;100.00;98102.44;68027;1275;1016530;-58
2023/02/02 12:50:46;;;;;;;;;;;;;;;3.58;100.00;98093.48;68034;1275;1016352;-58
2023/02/02 12:53:49;;;;;;;;;;;;;;;3.56;100.00;98106.21;68079;1275;1016546;-58
2023/02/02 12:56:51;;;;;;;;;;;;;;;3.63;100.00;98115.60;68002;1275;1018316;-58
2023/02/02 12:59:54;;;;;;;;;;;;;;;3.56;100.00;98124.36;68048;1275;1016469;-58
2023/02/02 13:02:56;;;;;;;;;;;;;;;3.57;100.00;98125.20;68039;1275;1018903;-59
2023/02/02 13:05:59;;;;;;;;;;;;;;;3.55;100.00;98135.49;68047;1275;1016440;-59
2023/02/02 13:09:01;;;;;;;;;;;;;;;3.54;100.00;98141.94;67976;1275;1016434;-58
2023/02/02 13:12:03;;;;;;;;;;;;;;;3.51;100.00;98155.02;67965;1275;1016131;-58
2023/02/02 13:15:06;;;;;;;;;;;;;;;3.56;100.00;98148.05;68039;1275;1015819;-59
2023/02/02 13:18:08;;;;;;;;;;;;;;;3.62;100.00;98156.98;68046;1275;1016358;-58
2023/02/02 13:21:11;;;;;;;;;;;;;;;3.66;100.00;98147.63;67965;1275;1016494;-58
2023/02/02 13:24:13;;;;;;;;;;;;;;;3.72;100.00;98157.76;67997;1275;1018788;-59
2023/02/02 13:27:16;;;;;;;;;;;;;;;3.69;100.00;98178.46;67994;1275;1016228;-59
2023/02/02 13:30:18;;;;;;;;;;;;;;;3.70;100.00;98183.77;68015;1275;1016406;-59
2023/02/02 13:33:20;;;;;;;;;;;;;;;3.68;100.00;98180.06;68018;1275;1016174;-59
2023/02/02 13:36:27;;;;;;;;;;;;;;;3.63;100.00;98187.18;68041;1275;1016462;-58
2023/02/02 13:39:30;;;;;;;;;;;;;;;3.55;100.00;98220.20;67990;1275;1016504;-58
2023/02/02 13:42:32;;;;;;;;;;;;;;;3.57;100.00;98234.48;68005;1275;1015686;-58
2023/02/02 13:45:35;;;;;;;;;;;;;;;3.55;100.00;98247.67;68033;1275;1017196;-58
2023/02/02 13:48:37;;;;;;;;;;;;;;;3.60;100.00;98249.03;68037;1275;1018899;-58
2023/02/02 13:51:39;;;;;;;;;;;;;;;3.61;100.00;98251.05;68022;1275;1016455;-58
2023/02/02 13:54:42;;;;;;;;;;;;;;;3.66;100.00;98245.70;67972;1275;1016357;-59
2023/02/02 13:57:44;;;;;;;;;;;;;;;3.67;100.00;98250.98;67987;1275;1016391;-59
2023/02/02 14:00:47;;;;;;;;;;;;;;;3.71;100.00;98264.66;68021;1275;1016316;-58
2023/02/02 14:03:50;;;;;;;;;;;;;;;3.69;100.00;98276.84;68017;1275;1016348;-58
2023/02/02 14:06:52;;;;;;;;;;;;;;;3.72;100.00;98276.37;67950;1275;1016449;-58
2023/02/02 14:09:54;;;;;;;;;;;;;;;3.72;100.00;98279.50;67950;1275;1016457;-58
2023/02/02 14:12:57;;;;;;;;;;;;;;;3.65;100.00;98285.50;67958;1275;1015767;-58
2023/02/02 14:15:59;;;;;;;;;;;;;;;3.60;100.00;98287.77;68024;1275;1016483;-58
2023/02/02 14:19:01;;;;;;;;;;;;;;;3.45;100.00;98297.89;68025;1275;1016498;-58
2023/02/02 14:22:04;;;;;;;;;;;;;;;3.32;100.00;98317.23;67982;1275;1016379;-58
2023/02/02 14:25:06;;;;;;;;;;;;;;;3.12;100.00;98309.73;67964;1275;1016544;-58
2023/02/02 14:28:09;;;;;;;;;;;;;;;3.04;100.00;98315.38;68002;1275;1016737;-58
2023/02/02 14:31:11;;;;;;;;;;;;;;;3.05;100.00;98330.55;68035;1275;1016434;-58
2023/02/02 14:34:13;;;;;;;;;;;;;;;3.19;100.00;98335.56;68014;1275;1016499;-59
2023/02/02 14:37:16;;;;;;;;;;;;;;;3.28;100.00;98339.85;67956;1275;1016374;-58
2023/02/02 14:40:18;;;;;;;;;;;;;;;3.47;100.00;98346.90;67947;1275;1018576;-58
2023/02/02 14:46:46;;;;;;;;;;;;;;;3.47;100.00;98367.79;68019;1275;1016358;-59
2023/02/02 14:49:49;;;;;;;;;;;;;;;3.36;100.00;98358.89;68003;1275;1016481;-59
2023/02/02 14:52:51;;;;;;;;;;;;;;;3.29;100.00;98383.55;68018;1275;1016101;-59
2023/02/02 14:55:54;;;;;;;;;;;;;;;3.27;100.00;98387.09;68001;1275;1016442;-59
2023/02/02 14:58:58;;;;;;;;;;;;;;;3.16;100.00;98389.73;67971;1275;1016420;-59
2023/02/02 15:02:01;;;;;;;;;;;;;;;3.19;100.00;98398.61;67975;1275;1016468;-58
2023/02/02 15:05:03;;;;;;;;;;;;;;;3.26;100.00;98407.48;68006;1275;1018009;-58
2023/02/02 15:08:06;;;;;;;;;;;;;;;3.32;100.00;98418.86;68006;1275;1016050;-59
2023/02/02 15:14:39;;;;;;;;;;;;;;;3.27;100.00;98432.72;67793;1280;1016928;-58
2023/02/02 15:17:43;;;;;;;;;;;;;;;3.29;100.00;98440.58;68007;1275;1016278;-59
2023/02/02 15:20:47;;;;;;;;;;;;;;;3.43;100.00;98438.48;67994;1275;1017684;-58
2023/02/02 15:23:51;;;;;;;;;;;;;;;3.37;100.00;98450.27;68011;1275;1015990;-58
2023/02/02 15:26:54;;;;;;;;;;;;;;;3.27;100.00;98458.94;67996;1275;1016439;-58
2023/02/02 15:29:56;;;;;;;;;;;;;;;3.40;100.00;98462.81;67970;1275;1017362;-59
2023/02/02 15:32:59;;;;;;;;;;;;;;;3.59;100.00;98480.08;67957;1275;1016484;-59
2023/02/02 15:36:02;;;;;;;;;;;;;;;3.59;100.00;98479.57;67980;1275;1016470;-59
2023/02/02 15:39:04;;;;;;;;;;;;;;;3.56;100.00;98482.06;67946;1275;1016671;-59
2023/02/02 15:45:27;;;;;;;;;;;;;;;3.51;100.00;98499.71;67953;1275;1018144;-59
2023/02/02 15:48:29;;;;;;;;;;;;;;;3.61;100.00;98499.69;68015;1275;1019609;-59